sensor_id;sensor_type;location;lat;lon;timestamp;pressure;altitude;pressure_sealevel;temperature;humidity
75543;BME280;64129;53.508;10.476;2024-01-16T00:01:31;99785.28;;;-0.90;86.72
75543;BME280;64129;53.508;10.476;2024-01-16T00:03:58;99785.63;;;-0.77;86.90
75543;BME280;64129;53.508;10.476;2024-01-16T00:06:24;99791.50;;;-0.82;86.86
75543;BME280;64129;53.508;10.476;2024-01-16T00:08:51;99792.91;;;-0.93;86.96
75543;BME280;64129;53.508;10.476;2024-01-16T00:11:17;99786.78;;;-0.65;87.12
75543;BME280;64129;53.508;10.476;2024-01-16T00:13:44;99791.81;;;-0.70;87.10
75543;BME280;64129;53.508;10.476;2024-01-16T00:16:10;99803.44;;;-0.84;87.42
75543;BME280;64129;53.508;10.476;2024-01-16T00:18:40;99800.34;;;-0.71;86.74
75543;BME280;64129;53.508;10.476;2024-01-16T00:21:06;99802.66;;;-0.83;87.17
75543;BME280;64129;53.508;10.476;2024-01-16T00:23:33;99807.72;;;-0.85;87.60
75543;BME280;64129;53.508;10.476;2024-01-16T00:25:59;99805.84;;;-1.25;87.36
75543;BME280;64129;53.508;10.476;2024-01-16T00:28:26;99811.09;;;-1.20;87.67
75543;BME280;64129;53.508;10.476;2024-01-16T00:30:52;99824.34;;;-1.07;88.48
75543;BME280;64129;53.508;10.476;2024-01-16T00:33:19;99825.44;;;-1.30;88.86
75543;BME280;64129;53.508;10.476;2024-01-16T00:35:46;99827.69;;;-1.09;87.84
75543;BME280;64129;53.508;10.476;2024-01-16T00:38:12;99828.75;;;-1.02;87.77
75543;BME280;64129;53.508;10.476;2024-01-16T00:40:39;99834.84;;;-0.99;88.10
75543;BME280;64129;53.508;10.476;2024-01-16T00:43:05;99832.81;;;-1.11;87.65
75543;BME280;64129;53.508;10.476;2024-01-16T00:45:32;99830.75;;;-0.91;87.14
75543;BME280;64129;53.508;10.476;2024-01-16T00:47:58;99846.47;;;-1.13;87.49
75543;BME280;64129;53.508;10.476;2024-01-16T00:50:25;99849.75;;;-0.87;87.85
75543;BME280;64129;53.508;10.476;2024-01-16T00:52:51;99840.44;;;-0.82;87.38
75543;BME280;64129;53.508;10.476;2024-01-16T00:55:18;99851.50;;;-0.86;87.41
75543;BME280;64129;53.508;10.476;2024-01-16T00:57:44;99856.91;;;-0.75;87.42
75543;BME280;64129;53.508;10.476;2024-01-16T01:00:11;99856.03;;;-0.76;87.73
75543;BME280;64129;53.508;10.476;2024-01-16T01:02:38;99863.47;;;-0.88;87.65
75543;BME280;64129;53.508;10.476;2024-01-16T01:05:05;99876.59;;;-0.79;87.74
75543;BME280;64129;53.508;10.476;2024-01-16T01:07:33;99877.59;;;-1.06;87.74
75543;BME280;64129;53.508;10.476;2024-01-16T01:09:59;99876.97;;;-0.97;87.98
75543;BME280;64129;53.508;10.476;2024-01-16T01:12:26;99869.06;;;-1.03;88.06
75543;BME280;64129;53.508;10.476;2024-01-16T01:14:52;99870.84;;;-1.00;87.90
75543;BME280;64129;53.508;10.476;2024-01-16T01:17:19;99876.91;;;-0.98;86.61
75543;BME280;64129;53.508;10.476;2024-01-16T01:19:45;99882.84;;;-1.02;87.12
75543;BME280;64129;53.508;10.476;2024-01-16T01:22:12;99887.56;;;-0.86;87.33
75543;BME280;64129;53.508;10.476;2024-01-16T01:24:39;99895.69;;;-1.33;87.56
75543;BME280;64129;53.508;10.476;2024-01-16T01:27:05;99902.47;;;-1.06;87.34
75543;BME280;64129;53.508;10.476;2024-01-16T01:29:32;99903.22;;;-1.10;86.58
75543;BME280;64129;53.508;10.476;2024-01-16T01:31:59;99900.03;;;-1.01;86.71
75543;BME280;64129;53.508;10.476;2024-01-16T01:34:25;99908.06;;;-0.89;86.42
75543;BME280;64129;53.508;10.476;2024-01-16T01:36:52;99908.41;;;-0.77;86.42
75543;BME280;64129;53.508;10.476;2024-01-16T01:39:19;99906.00;;;-0.71;86.74
75543;BME280;64129;53.508;10.476;2024-01-16T01:41:45;99902.66;;;-0.98;87.25
75543;BME280;64129;53.508;10.476;2024-01-16T01:44:12;99904.94;;;-0.79;87.45
75543;BME280;64129;53.508;10.476;2024-01-16T01:46:43;99911.72;;;-0.81;87.25
75543;BME280;64129;53.508;10.476;2024-01-16T01:49:12;99908.25;;;-0.83;86.89
75543;BME280;64129;53.508;10.476;2024-01-16T01:51:40;99917.75;;;-0.81;86.76
75543;BME280;64129;53.508;10.476;2024-01-16T01:54:08;99912.56;;;-0.82;86.71
75543;BME280;64129;53.508;10.476;2024-01-16T01:56:36;99923.34;;;-0.95;86.13
75543;BME280;64129;53.508;10.476;2024-01-16T01:59:03;99929.78;;;-0.80;86.17
75543;BME280;64129;53.508;10.476;2024-01-16T02:01:31;99930.25;;;-0.94;86.87
75543;BME280;64129;53.508;10.476;2024-01-16T02:03:59;99932.25;;;-0.84;87.16
75543;BME280;64129;53.508;10.476;2024-01-16T02:06:25;99930.00;;;-0.72;86.55
75543;BME280;64129;53.508;10.476;2024-01-16T02:08:52;99935.53;;;-0.90;86.38
75543;BME280;64129;53.508;10.476;2024-01-16T02:11:19;99937.38;;;-0.86;85.63
75543;BME280;64129;53.508;10.476;2024-01-16T02:13:45;99935.19;;;-0.70;85.79
75543;BME280;64129;53.508;10.476;2024-01-16T02:16:22;99952.72;;;-1.19;86.61
75543;BME280;64129;53.508;10.476;2024-01-16T02:18:49;99942.75;;;-0.78;86.33
75543;BME280;64129;53.508;10.476;2024-01-16T02:21:20;99952.25;;;-0.75;86.26
75543;BME280;64129;53.508;10.476;2024-01-16T02:23:48;99948.81;;;-1.06;86.75
75543;BME280;64129;53.508;10.476;2024-01-16T02:26:14;99949.28;;;-0.89;85.95
75543;BME280;64129;53.508;10.476;2024-01-16T02:28:42;99948.41;;;-0.90;85.60
75543;BME280;64129;53.508;10.476;2024-01-16T02:31:09;99948.97;;;-1.00;86.40
75543;BME280;64129;53.508;10.476;2024-01-16T02:33:35;99949.66;;;-0.75;85.18
75543;BME280;64129;53.508;10.476;2024-01-16T02:36:02;99945.09;;;-0.86;86.16
75543;BME280;64129;53.508;10.476;2024-01-16T02:38:28;99954.00;;;-1.05;86.85
75543;BME280;64129;53.508;10.476;2024-01-16T02:40:55;99954.75;;;-0.79;86.20
75543;BME280;64129;53.508;10.476;2024-01-16T02:43:22;99964.06;;;-0.84;86.68
75543;BME280;64129;53.508;10.476;2024-01-16T02:45:49;99954.47;;;-1.18;86.00
75543;BME280;64129;53.508;10.476;2024-01-16T02:48:16;99948.72;;;-1.09;86.78
75543;BME280;64129;53.508;10.476;2024-01-16T02:50:42;99951.34;;;-1.36;87.67
75543;BME280;64129;53.508;10.476;2024-01-16T02:53:09;99955.84;;;-1.00;86.52
75543;BME280;64129;53.508;10.476;2024-01-16T02:55:36;99964.88;;;-1.15;87.72
75543;BME280;64129;53.508;10.476;2024-01-16T02:58:02;99966.94;;;-1.32;87.12
75543;BME280;64129;53.508;10.476;2024-01-16T03:00:29;99965.94;;;-1.37;86.63
75543;BME280;64129;53.508;10.476;2024-01-16T03:02:56;99959.28;;;-1.30;86.74
75543;BME280;64129;53.508;10.476;2024-01-16T03:05:23;99955.34;;;-1.46;86.88
75543;BME280;64129;53.508;10.476;2024-01-16T03:07:49;99963.63;;;-1.56;86.69
75543;BME280;64129;53.508;10.476;2024-01-16T03:10:16;99963.78;;;-1.50;87.46
75543;BME280;64129;53.508;10.476;2024-01-16T03:12:43;99971.59;;;-1.48;86.72
75543;BME280;64129;53.508;10.476;2024-01-16T03:15:09;99964.44;;;-1.30;86.56
75543;BME280;64129;53.508;10.476;2024-01-16T03:17:36;99961.72;;;-1.35;86.84
75543;BME280;64129;53.508;10.476;2024-01-16T03:20:03;99959.88;;;-1.39;86.78
75543;BME280;64129;53.508;10.476;2024-01-16T03:22:29;99958.06;;;-1.41;86.20
75543;BME280;64129;53.508;10.476;2024-01-16T03:24:56;99960.69;;;-1.40;86.62
75543;BME280;64129;53.508;10.476;2024-01-16T03:27:23;99965.94;;;-1.37;86.35
75543;BME280;64129;53.508;10.476;2024-01-16T03:29:50;99964.03;;;-1.42;86.79
75543;BME280;64129;53.508;10.476;2024-01-16T03:32:17;99964.00;;;-1.15;86.56
75543;BME280;64129;53.508;10.476;2024-01-16T03:34:43;99958.63;;;-1.51;86.09
75543;BME280;64129;53.508;10.476;2024-01-16T03:37:10;99957.19;;;-1.42;86.41
75543;BME280;64129;53.508;10.476;2024-01-16T03:39:36;99954.03;;;-1.62;87.14
75543;BME280;64129;53.508;10.476;2024-01-16T03:42:03;99957.09;;;-1.45;86.44
75543;BME280;64129;53.508;10.476;2024-01-16T03:44:30;99957.19;;;-1.42;86.29
75543;BME280;64129;53.508;10.476;2024-01-16T03:46:56;99976.53;;;-1.55;86.74
75543;BME280;64129;53.508;10.476;2024-01-16T03:49:23;99972.25;;;-1.54;86.42
75543;BME280;64129;53.508;10.476;2024-01-16T03:51:51;99977.69;;;-1.45;86.85
75543;BME280;64129;53.508;10.476;2024-01-16T03:54:17;99977.19;;;-1.33;87.06
75543;BME280;64129;53.508;10.476;2024-01-16T03:56:44;99976.22;;;-1.64;87.71
75543;BME280;64129;53.508;10.476;2024-01-16T03:59:11;99979.28;;;-1.77;88.56
75543;BME280;64129;53.508;10.476;2024-01-16T04:01:37;99986.44;;;-1.67;88.50
75543;BME280;64129;53.508;10.476;2024-01-16T04:04:04;99976.16;;;-1.67;88.09
75543;BME280;64129;53.508;10.476;2024-01-16T04:06:33;99982.78;;;-2.00;89.67
75543;BME280;64129;53.508;10.476;2024-01-16T04:09:00;99980.78;;;-1.82;88.45
75543;BME280;64129;53.508;10.476;2024-01-16T04:11:27;99980.06;;;-2.05;89.73
75543;BME280;64129;53.508;10.476;2024-01-16T04:13:53;99978.13;;;-1.85;89.52
75543;BME280;64129;53.508;10.476;2024-01-16T04:16:20;99990.16;;;-1.84;89.23
75543;BME280;64129;53.508;10.476;2024-01-16T04:18:47;99987.06;;;-1.74;89.46
75543;BME280;64129;53.508;10.476;2024-01-16T04:21:14;99991.09;;;-1.55;88.74
75543;BME280;64129;53.508;10.476;2024-01-16T04:23:42;99988.06;;;-1.69;89.04
75543;BME280;64129;53.508;10.476;2024-01-16T04:26:08;99980.88;;;-1.81;89.28
75543;BME280;64129;53.508;10.476;2024-01-16T04:28:35;99968.22;;;-1.73;88.74
75543;BME280;64129;53.508;10.476;2024-01-16T04:31:04;99968.63;;;-1.61;88.94
75543;BME280;64129;53.508;10.476;2024-01-16T04:33:31;99966.34;;;-1.78;89.20
75543;BME280;64129;53.508;10.476;2024-01-16T04:35:58;99962.16;;;-1.75;89.22
75543;BME280;64129;53.508;10.476;2024-01-16T04:38:24;99974.25;;;-1.99;90.35
75543;BME280;64129;53.508;10.476;2024-01-16T04:40:51;99974.41;;;-1.95;89.78
75543;BME280;64129;53.508;10.476;2024-01-16T04:43:17;99981.75;;;-2.06;90.00
75543;BME280;64129;53.508;10.476;2024-01-16T04:45:44;99980.88;;;-2.06;89.77
75543;BME280;64129;53.508;10.476;2024-01-16T04:48:10;99984.28;;;-2.07;89.73
75543;BME280;64129;53.508;10.476;2024-01-16T04:50:37;99990.50;;;-2.00;89.47
75543;BME280;64129;53.508;10.476;2024-01-16T04:53:04;99989.41;;;-1.82;89.23
75543;BME280;64129;53.508;10.476;2024-01-16T04:55:30;99996.66;;;-1.95;89.36
75543;BME280;64129;53.508;10.476;2024-01-16T04:57:57;99991.59;;;-1.67;88.77
75543;BME280;64129;53.508;10.476;2024-01-16T05:00:24;99995.13;;;-1.90;89.43
75543;BME280;64129;53.508;10.476;2024-01-16T05:02:51;99996.28;;;-1.81;89.56
75543;BME280;64129;53.508;10.476;2024-01-16T05:05:18;99997.34;;;-1.74;90.21
75543;BME280;64129;53.508;10.476;2024-01-16T05:07:44;99996.19;;;-1.84;89.66
75543;BME280;64129;53.508;10.476;2024-01-16T05:10:12;99984.97;;;-1.86;89.94
75543;BME280;64129;53.508;10.476;2024-01-16T05:12:41;99980.72;;;-1.85;90.03
75543;BME280;64129;53.508;10.476;2024-01-16T05:15:09;99986.44;;;-1.67;89.68
75543;BME280;64129;53.508;10.476;2024-01-16T05:17:37;99989.19;;;-1.88;90.27
75543;BME280;64129;53.508;10.476;2024-01-16T05:20:04;99980.47;;;-1.66;89.78
75543;BME280;64129;53.508;10.476;2024-01-16T05:22:31;99990.28;;;-1.81;89.90
75543;BME280;64129;53.508;10.476;2024-01-16T05:24:59;99989.25;;;-1.86;90.29
75543;BME280;64129;53.508;10.476;2024-01-16T05:27:26;99981.84;;;-1.77;89.99
75543;BME280;64129;53.508;10.476;2024-01-16T05:29:52;99972.31;;;-1.52;89.09
75543;BME280;64129;53.508;10.476;2024-01-16T05:32:19;99970.09;;;-1.40;89.35
75543;BME280;64129;53.508;10.476;2024-01-16T05:34:45;99970.72;;;-1.76;89.48
75543;BME280;64129;53.508;10.476;2024-01-16T05:37:12;99972.47;;;-1.75;89.98
75543;BME280;64129;53.508;10.476;2024-01-16T05:39:38;99977.31;;;-1.84;90.07
75543;BME280;64129;53.508;10.476;2024-01-16T05:42:05;99974.34;;;-1.69;90.25
75543;BME280;64129;53.508;10.476;2024-01-16T05:44:32;99967.22;;;-1.78;90.20
75543;BME280;64129;53.508;10.476;2024-01-16T05:46:59;99970.91;;;-1.70;90.23
75543;BME280;64129;53.508;10.476;2024-01-16T05:49:26;99978.88;;;-1.89;90.79
75543;BME280;64129;53.508;10.476;2024-01-16T05:51:52;99981.16;;;-1.71;90.39
75543;BME280;64129;53.508;10.476;2024-01-16T05:54:19;99985.50;;;-1.69;90.05
75543;BME280;64129;53.508;10.476;2024-01-16T05:56:45;99992.31;;;-1.71;90.36
75543;BME280;64129;53.508;10.476;2024-01-16T05:59:12;99980.78;;;-1.82;90.63
75543;BME280;64129;53.508;10.476;2024-01-16T06:01:38;99988.00;;;-1.72;90.71
75543;BME280;64129;53.508;10.476;2024-01-16T06:04:05;99984.78;;;-1.65;90.52
75543;BME280;64129;53.508;10.476;2024-01-16T06:06:32;99986.31;;;-1.71;90.47
75543;BME280;64129;53.508;10.476;2024-01-16T06:08:59;99978.50;;;-1.73;90.55
75543;BME280;64129;53.508;10.476;2024-01-16T06:11:32;99977.59;;;-1.75;90.84
75543;BME280;64129;53.508;10.476;2024-01-16T06:13:59;99974.56;;;-1.63;90.76
75543;BME280;64129;53.508;10.476;2024-01-16T06:16:26;99974.41;;;-1.68;90.64
75543;BME280;64129;53.508;10.476;2024-01-16T06:18:52;99974.19;;;-1.74;91.01
75543;BME280;64129;53.508;10.476;2024-01-16T06:21:19;99972.53;;;-1.45;90.16
75543;BME280;64129;53.508;10.476;2024-01-16T06:23:47;99975.50;;;-1.60;90.81
75543;BME280;64129;53.508;10.476;2024-01-16T06:26:13;99977.53;;;-1.49;90.53
75543;BME280;64129;53.508;10.476;2024-01-16T06:28:40;99972.47;;;-1.48;90.58
75543;BME280;64129;53.508;10.476;2024-01-16T06:31:09;99971.63;;;-1.47;90.62
75543;BME280;64129;53.508;10.476;2024-01-16T06:33:36;99977.50;;;-1.51;90.46
75543;BME280;64129;53.508;10.476;2024-01-16T06:36:03;99976.66;;;-1.50;90.73
75543;BME280;64129;53.508;10.476;2024-01-16T06:38:32;99975.16;;;-1.43;90.91
75543;BME280;64129;53.508;10.476;2024-01-16T06:40:59;99967.16;;;-1.52;90.95
75543;BME280;64129;53.508;10.476;2024-01-16T06:43:26;99966.91;;;-1.60;91.38
75543;BME280;64129;53.508;10.476;2024-01-16T06:45:53;99966.44;;;-1.48;91.17
75543;BME280;64129;53.508;10.476;2024-01-16T06:48:20;99968.19;;;-1.47;91.00
75543;BME280;64129;53.508;10.476;2024-01-16T06:50:47;99973.88;;;-1.58;91.88
75543;BME280;64129;53.508;10.476;2024-01-16T06:53:14;99977.00;;;-1.39;90.78
75543;BME280;64129;53.508;10.476;2024-01-16T06:55:42;99972.63;;;-1.42;91.13
75543;BME280;64129;53.508;10.476;2024-01-16T06:58:08;99979.09;;;-1.55;91.57
75543;BME280;64129;53.508;10.476;2024-01-16T07:00:36;99980.03;;;-1.52;91.67
75543;BME280;64129;53.508;10.476;2024-01-16T07:03:03;99982.91;;;-1.43;91.43
75543;BME280;64129;53.508;10.476;2024-01-16T07:05:29;99975.25;;;-1.40;91.65
75543;BME280;64129;53.508;10.476;2024-01-16T07:07:56;99979.53;;;-1.41;91.50
75543;BME280;64129;53.508;10.476;2024-01-16T07:10:23;99984.22;;;-1.27;91.17
75543;BME280;64129;53.508;10.476;2024-01-16T07:12:50;99973.59;;;-1.38;91.25
75543;BME280;64129;53.508;10.476;2024-01-16T07:15:18;99981.22;;;-1.41;91.40
75543;BME280;64129;53.508;10.476;2024-01-16T07:17:44;99982.44;;;-1.30;91.38
75543;BME280;64129;53.508;10.476;2024-01-16T07:20:11;99984.88;;;-1.35;91.27
75543;BME280;64129;53.508;10.476;2024-01-16T07:22:38;99994.31;;;-1.35;91.85
75543;BME280;64129;53.508;10.476;2024-01-16T07:25:08;99990.97;;;-1.31;91.56
75543;BME280;64129;53.508;10.476;2024-01-16T07:27:35;99981.47;;;-1.34;91.71
75543;BME280;64129;53.508;10.476;2024-01-16T07:30:04;99983.38;;;-1.26;91.84
75543;BME280;64129;53.508;10.476;2024-01-16T07:32:31;99984.16;;;-1.31;92.07
75543;BME280;64129;53.508;10.476;2024-01-16T07:34:58;99976.75;;;-1.20;91.93
75543;BME280;64129;53.508;10.476;2024-01-16T07:37:25;99978.94;;;-1.32;92.32
75543;BME280;64129;53.508;10.476;2024-01-16T07:39:51;99981.91;;;-1.18;91.68
75543;BME280;64129;53.508;10.476;2024-01-16T07:42:18;99989.41;;;-1.26;92.08
75543;BME280;64129;53.508;10.476;2024-01-16T07:44:44;99992.22;;;-1.18;92.26
75543;BME280;64129;53.508;10.476;2024-01-16T07:47:11;99986.09;;;-1.22;92.28
75543;BME280;64129;53.508;10.476;2024-01-16T07:49:37;99993.03;;;-1.21;92.08
75543;BME280;64129;53.508;10.476;2024-01-16T07:52:05;99996.34;;;-1.23;92.45
75543;BME280;64129;53.508;10.476;2024-01-16T07:54:31;99994.09;;;-1.13;91.92
75543;BME280;64129;53.508;10.476;2024-01-16T07:56:58;99997.34;;;-1.20;91.99
75543;BME280;64129;53.508;10.476;2024-01-16T07:59:25;99993.38;;;-1.09;92.70
75543;BME280;64129;53.508;10.476;2024-01-16T08:01:52;99988.41;;;0.27;88.65
75543;BME280;64129;53.508;10.476;2024-01-16T08:04:20;99989.41;;;-0.36;89.04
75543;BME280;64129;53.508;10.476;2024-01-16T08:06:46;99990.59;;;-0.86;90.94
75543;BME280;64129;53.508;10.476;2024-01-16T08:09:13;99989.63;;;-0.90;91.39
75543;BME280;64129;53.508;10.476;2024-01-16T08:11:40;99999.75;;;-0.96;91.39
75543;BME280;64129;53.508;10.476;2024-01-16T08:14:07;99994.00;;;-0.87;91.26
75543;BME280;64129;53.508;10.476;2024-01-16T08:16:33;99992.44;;;-0.82;90.93
75543;BME280;64129;53.508;10.476;2024-01-16T08:19:00;99995.56;;;-0.92;91.52
75543;BME280;64129;53.508;10.476;2024-01-16T08:21:27;99994.97;;;-0.84;91.44
75543;BME280;64129;53.508;10.476;2024-01-16T08:23:53;99997.94;;;-0.98;92.10
75543;BME280;64129;53.508;10.476;2024-01-16T08:26:20;99993.78;;;-0.95;92.24
75543;BME280;64129;53.508;10.476;2024-01-16T08:28:47;99992.81;;;-0.98;92.83
75543;BME280;64129;53.508;10.476;2024-01-16T08:31:16;100000.66;;;-0.94;92.49
75543;BME280;64129;53.508;10.476;2024-01-16T08:33:44;100004.94;;;-0.94;92.86
75543;BME280;64129;53.508;10.476;2024-01-16T08:36:11;99998.22;;;-0.89;92.40
75543;BME280;64129;53.508;10.476;2024-01-16T08:38:37;100003.03;;;-1.01;92.24
75543;BME280;64129;53.508;10.476;2024-01-16T08:41:04;100003.06;;;-1.00;92.24
75543;BME280;64129;53.508;10.476;2024-01-16T08:43:33;100013.47;;;-0.97;91.84
75543;BME280;64129;53.508;10.476;2024-01-16T08:45:59;100013.00;;;-0.84;91.72
75543;BME280;64129;53.508;10.476;2024-01-16T08:48:26;100010.47;;;-0.82;91.57
75543;BME280;64129;53.508;10.476;2024-01-16T08:50:52;100013.41;;;-0.98;91.92
75543;BME280;64129;53.508;10.476;2024-01-16T08:53:20;100017.69;;;-0.99;91.90
75543;BME280;64129;53.508;10.476;2024-01-16T08:55:49;100023.34;;;-0.82;91.65
75543;BME280;64129;53.508;10.476;2024-01-16T08:58:16;100022.25;;;-0.90;91.42
75543;BME280;64129;53.508;10.476;2024-01-16T09:00:42;100026.88;;;-0.79;91.13
75543;BME280;64129;53.508;10.476;2024-01-16T09:03:09;100016.38;;;-0.85;90.98
75543;BME280;64129;53.508;10.476;2024-01-16T09:05:35;100013.75;;;-0.88;91.14
75543;BME280;64129;53.508;10.476;2024-01-16T09:08:05;100017.22;;;-0.86;90.63
75543;BME280;64129;53.508;10.476;2024-01-16T09:10:32;100018.78;;;-0.91;90.77
75543;BME280;64129;53.508;10.476;2024-01-16T09:12:58;100024.06;;;-0.86;90.56
75543;BME280;64129;53.508;10.476;2024-01-16T09:15:25;100025.34;;;-0.72;90.39
75543;BME280;64129;53.508;10.476;2024-01-16T09:17:52;100021.41;;;-0.89;90.76
75543;BME280;64129;53.508;10.476;2024-01-16T09:20:18;100024.25;;;-0.80;90.46
75543;BME280;64129;53.508;10.476;2024-01-16T09:22:45;100017.63;;;-0.72;90.87
75543;BME280;64129;53.508;10.476;2024-01-16T09:25:12;100021.91;;;-0.72;90.94
75543;BME280;64129;53.508;10.476;2024-01-16T09:27:38;100029.06;;;-0.62;90.29
75543;BME280;64129;53.508;10.476;2024-01-16T09:30:05;100015.16;;;-0.67;91.31
75543;BME280;64129;53.508;10.476;2024-01-16T09:32:33;100026.31;;;-0.68;91.23
75543;BME280;64129;53.508;10.476;2024-01-16T09:35:02;100023.22;;;-0.87;92.19
75543;BME280;64129;53.508;10.476;2024-01-16T09:37:30;100026.16;;;-0.74;91.78
75543;BME280;64129;53.508;10.476;2024-01-16T09:39:57;100025.59;;;-0.63;91.41
75543;BME280;64129;53.508;10.476;2024-01-16T09:42:24;100029.75;;;-0.68;91.41
75543;BME280;64129;53.508;10.476;2024-01-16T09:44:52;100031.84;;;-0.55;91.23
75543;BME280;64129;53.508;10.476;2024-01-16T09:47:18;100033.50;;;-0.57;90.72
75543;BME280;64129;53.508;10.476;2024-01-16T09:49:46;100026.97;;;-0.45;90.39
75543;BME280;64129;53.508;10.476;2024-01-16T09:52:13;100028.88;;;-0.38;90.27
75543;BME280;64129;53.508;10.476;2024-01-16T09:54:40;100032.44;;;-0.65;90.28
75543;BME280;64129;53.508;10.476;2024-01-16T09:57:07;100027.88;;;-0.43;90.01
75543;BME280;64129;53.508;10.476;2024-01-16T09:59:36;100026.84;;;-0.50;90.32
75543;BME280;64129;53.508;10.476;2024-01-16T10:02:03;100031.94;;;-0.52;90.34
75543;BME280;64129;53.508;10.476;2024-01-16T10:04:34;100029.00;;;-0.34;90.20
75543;BME280;64129;53.508;10.476;2024-01-16T10:07:01;100030.50;;;-0.42;90.38
75543;BME280;64129;53.508;10.476;2024-01-16T10:09:28;100029.06;;;-0.32;90.07
75543;BME280;64129;53.508;10.476;2024-01-16T10:11:55;100032.44;;;-0.65;90.97
75543;BME280;64129;53.508;10.476;2024-01-16T10:14:23;100033.03;;;-0.43;90.22
75543;BME280;64129;53.508;10.476;2024-01-16T10:17:01;100039.88;;;-0.44;89.94
75543;BME280;64129;53.508;10.476;2024-01-16T10:19:51;100034.28;;;-0.29;89.69
75543;BME280;64129;53.508;10.476;2024-01-16T10:22:20;100038.00;;;-0.49;89.90
75543;BME280;64129;53.508;10.476;2024-01-16T10:24:49;100040.09;;;-0.36;90.30
75543;BME280;64129;53.508;10.476;2024-01-16T10:27:16;100041.97;;;-0.31;89.85
75543;BME280;64129;53.508;10.476;2024-01-16T10:29:57;100035.06;;;-0.32;89.69
75543;BME280;64129;53.508;10.476;2024-01-16T10:32:28;100035.06;;;-0.32;90.00
75543;BME280;64129;53.508;10.476;2024-01-16T10:35:03;100037.56;;;-0.35;89.50
75543;BME280;64129;53.508;10.476;2024-01-16T10:37:51;100029.09;;;-0.31;89.57
75543;BME280;64129;53.508;10.476;2024-01-16T10:40:24;100027.47;;;0.06;88.88
75543;BME280;64129;53.508;10.476;2024-01-16T10:43:03;100026.97;;;-0.14;88.67
75543;BME280;64129;53.508;10.476;2024-01-16T10:45:33;100024.66;;;-0.03;88.89
75543;BME280;64129;53.508;10.476;2024-01-16T10:48:04;100023.53;;;0.20;88.45
75543;BME280;64129;53.508;10.476;2024-01-16T10:50:32;100031.25;;;0.19;88.48
75543;BME280;64129;53.508;10.476;2024-01-16T10:53:00;100035.44;;;0.15;88.07
75543;BME280;64129;53.508;10.476;2024-01-16T10:55:28;100030.66;;;0.31;88.32
75543;BME280;64129;53.508;10.476;2024-01-16T10:57:56;100030.53;;;0.24;87.86
75543;BME280;64129;53.508;10.476;2024-01-16T11:00:23;100029.16;;;0.39;88.09
75543;BME280;64129;53.508;10.476;2024-01-16T11:03:07;100034.97;;;0.32;88.07
75543;BME280;64129;53.508;10.476;2024-01-16T11:05:36;100041.69;;;0.23;88.27
75543;BME280;64129;53.508;10.476;2024-01-16T11:08:04;100032.38;;;0.30;88.32
75543;BME280;64129;53.508;10.476;2024-01-16T11:10:32;100047.31;;;0.09;88.74
75543;BME280;64129;53.508;10.476;2024-01-16T11:13:02;100042.47;;;0.21;88.79
75543;BME280;64129;53.508;10.476;2024-01-16T11:15:30;100045.78;;;0.15;88.50
75543;BME280;64129;53.508;10.476;2024-01-16T11:17:59;100046.50;;;0.10;88.63
75543;BME280;64129;53.508;10.476;2024-01-16T11:20:26;100053.81;;;0.28;87.92
75543;BME280;64129;53.508;10.476;2024-01-16T11:22:54;100050.28;;;0.24;88.63
75543;BME280;64129;53.508;10.476;2024-01-16T11:25:32;100048.75;;;0.32;88.13
75543;BME280;64129;53.508;10.476;2024-01-16T11:28:13;100046.50;;;0.44;87.89
75543;BME280;64129;53.508;10.476;2024-01-16T11:30:40;100044.88;;;0.48;87.91
75543;BME280;64129;53.508;10.476;2024-01-16T11:36:00;100051.31;;;0.31;87.93
75543;BME280;64129;53.508;10.476;2024-01-16T11:38:28;100047.75;;;0.25;88.16
75543;BME280;64129;53.508;10.476;2024-01-16T11:40:56;100053.75;;;0.24;88.07
75543;BME280;64129;53.508;10.476;2024-01-16T11:45:58;100039.72;;;0.49;87.63
75543;BME280;64129;53.508;10.476;2024-01-16T11:48:25;100046.03;;;0.26;87.61
75543;BME280;64129;53.508;10.476;2024-01-16T11:50:53;100037.00;;;0.43;87.64
75543;BME280;64129;53.508;10.476;2024-01-16T11:53:33;100047.56;;;0.53;87.40
75543;BME280;64129;53.508;10.476;2024-01-16T11:56:41;100048.22;;;0.45;88.09
75543;BME280;64129;53.508;10.476;2024-01-16T11:59:42;100046.38;;;0.40;87.85
75543;BME280;64129;53.508;10.476;2024-01-16T12:02:34;100045.41;;;0.36;88.51
75543;BME280;64129;53.508;10.476;2024-01-16T12:05:04;100041.25;;;0.41;87.87
75543;BME280;64129;53.508;10.476;2024-01-16T12:07:46;100038.44;;;0.32;87.75
75543;BME280;64129;53.508;10.476;2024-01-16T12:10:17;100043.59;;;0.32;88.46
75543;BME280;64129;53.508;10.476;2024-01-16T12:12:44;100045.19;;;0.62;87.91
75543;BME280;64129;53.508;10.476;2024-01-16T12:15:18;100059.88;;;0.28;87.41
75543;BME280;64129;53.508;10.476;2024-01-16T12:18:00;100053.91;;;0.32;88.03
75543;BME280;64129;53.508;10.476;2024-01-16T12:20:38;100046.19;;;0.32;88.35
75543;BME280;64129;53.508;10.476;2024-01-16T12:23:06;100047.72;;;0.24;88.77
75543;BME280;64129;53.508;10.476;2024-01-16T12:25:34;100043.47;;;0.28;88.31
75543;BME280;64129;53.508;10.476;2024-01-16T12:28:05;100038.84;;;0.47;88.42
75543;BME280;64129;53.508;10.476;2024-01-16T12:30:34;100039.69;;;0.48;87.77
75543;BME280;64129;53.508;10.476;2024-01-16T12:33:08;100044.25;;;0.58;87.68
75543;BME280;64129;53.508;10.476;2024-01-16T12:35:40;100039.41;;;0.37;88.36
75543;BME280;64129;53.508;10.476;2024-01-16T12:38:11;100048.47;;;0.20;88.23
75543;BME280;64129;53.508;10.476;2024-01-16T12:40:47;100049.59;;;0.31;89.03
75543;BME280;64129;53.508;10.476;2024-01-16T12:43:18;100047.75;;;0.25;88.30
75543;BME280;64129;53.508;10.476;2024-01-16T12:45:45;100036.91;;;0.40;87.99
75543;BME280;64129;53.508;10.476;2024-01-16T12:48:12;100042.09;;;0.42;88.11
75543;BME280;64129;53.508;10.476;2024-01-16T12:50:39;100040.25;;;0.36;87.61
75543;BME280;64129;53.508;10.476;2024-01-16T12:53:09;100030.13;;;0.44;87.32
75543;BME280;64129;53.508;10.476;2024-01-16T12:55:40;100044.13;;;0.54;86.95
75543;BME280;64129;53.508;10.476;2024-01-16T12:58:17;100041.78;;;0.64;87.64